createdAt,value
2022-08-07T00:02:35.019Z,62.08
2022-08-07T00:04:09.526Z,61.93
2022-08-07T00:06:40.893Z,62.00
2022-08-07T00:09:17.044Z,62.02
2022-08-07T00:11:56.044Z,62.26
2022-08-07T00:14:31.030Z,62.42
2022-08-07T00:17:03.105Z,62.64
2022-08-07T00:20:00.360Z,62.43
2022-08-07T00:22:24.907Z,62.79
2022-08-07T00:25:03.786Z,62.72
2022-08-07T00:27:35.819Z,63.20
2022-08-07T00:30:26.564Z,63.04
2022-08-07T00:32:59.217Z,63.11
2022-08-07T00:35:27.543Z,63.63
2022-08-07T00:37:57.992Z,63.67
2022-08-07T00:40:36.635Z,63.73
2022-08-07T00:43:09.789Z,63.61
2022-08-07T00:45:39.197Z,63.97
2022-08-07T00:48:08.915Z,63.84
2022-08-07T00:50:46.297Z,63.93
2022-08-07T00:53:20.601Z,63.88
2022-08-07T00:56:03.082Z,64.00
2022-08-07T00:58:32.642Z,63.82
2022-08-07T01:01:00.102Z,64.01
2022-08-07T01:03:56.180Z,64.03
2022-08-07T01:06:15.768Z,63.70
2022-08-07T01:08:52.909Z,63.20
2022-08-07T01:12:09.181Z,63.51
2022-08-07T01:14:09.238Z,63.17
2022-08-07T01:16:37.230Z,63.26
2022-08-07T01:19:14.787Z,63.24
2022-08-07T01:21:48.371Z,63.11
2022-08-07T01:24:18.750Z,63.37
2022-08-07T01:26:54.052Z,63.54
2022-08-07T01:29:23.735Z,63.27
2022-08-07T01:31:55.495Z,63.33
2022-08-07T01:34:30.658Z,63.66
2022-08-07T01:36:58.746Z,63.52
2022-08-07T01:39:40.521Z,63.48
2022-08-07T01:42:40.121Z,63.45
2022-08-07T01:45:09.753Z,63.43
2022-08-07T01:48:19.278Z,63.49
2022-08-07T01:50:31.288Z,63.54
2022-08-07T01:53:00.377Z,63.71
2022-08-07T01:55:29.659Z,63.93
2022-08-07T01:58:27.358Z,64.08
2022-08-07T02:01:09.334Z,63.87
2022-08-07T02:03:48.783Z,63.94
2022-08-07T02:06:31.795Z,64.07
2022-08-07T02:09:04.261Z,64.10
2022-08-07T02:12:02.690Z,64.34
2022-08-07T02:14:35.859Z,64.40
2022-08-07T02:17:04.103Z,64.25
2022-08-07T02:20:05.846Z,64.61
2022-08-07T02:22:25.797Z,64.49
2022-08-07T02:24:56.186Z,64.92
2022-08-07T02:27:25.508Z,64.85
2022-08-07T02:29:54.700Z,65.02
2022-08-07T02:32:23.495Z,64.76
2022-08-07T02:34:57.796Z,65.13
2022-08-07T02:37:26.506Z,64.85
2022-08-07T02:40:02.463Z,64.71
2022-08-07T02:42:44.814Z,64.97
2022-08-07T02:45:57.479Z,64.73
2022-08-07T02:48:02.244Z,64.57
2022-08-07T02:50:33.225Z,64.56
2022-08-07T02:53:06.157Z,64.53
2022-08-07T02:56:02.990Z,64.43
2022-08-07T02:58:27.203Z,64.35
2022-08-07T03:00:57.676Z,64.15
2022-08-07T03:03:42.083Z,64.41
2022-08-07T03:06:32.100Z,64.06
2022-08-07T03:09:02.712Z,63.85
2022-08-07T03:11:32.610Z,63.43
2022-08-07T03:14:03.206Z,63.48
2022-08-07T03:16:34.804Z,63.49
2022-08-07T03:19:02.541Z,63.67
2022-08-07T03:21:33.095Z,63.38
2022-08-07T03:24:19.903Z,63.34
2022-08-07T03:26:57.868Z,63.03
2022-08-07T03:29:33.912Z,63.19
2022-08-07T03:32:07.182Z,62.88
2022-08-07T03:34:47.613Z,62.80
2022-08-07T03:37:32.780Z,62.99
2022-08-07T03:40:14.936Z,62.94
2022-08-07T03:42:43.862Z,62.54
2022-08-07T03:45:11.804Z,62.59
2022-08-07T03:47:45.040Z,62.66
2022-08-07T03:50:23.116Z,62.55
2022-08-07T03:52:52.902Z,62.51
2022-08-07T03:55:20.108Z,62.18
2022-08-07T03:58:17.977Z,62.45
2022-08-07T04:00:38.551Z,62.36
2022-08-07T04:03:13.927Z,62.45
2022-08-07T04:05:42.481Z,62.59
2022-08-07T04:08:16.049Z,62.46
2022-08-07T04:10:54.115Z,62.42
2022-08-07T04:14:33.188Z,62.40
2022-08-07T04:16:30.994Z,62.66
2022-08-07T04:19:01.713Z,62.00
2022-08-07T04:21:33.308Z,61.93
2022-08-07T04:24:07.535Z,61.93
2022-08-07T04:26:35.144Z,62.40
2022-08-07T04:29:03.088Z,61.97
2022-08-07T04:31:38.727Z,61.80
2022-08-07T04:34:24.314Z,61.69
2022-08-07T04:36:54.860Z,61.39
2022-08-07T04:39:25.932Z,61.65
2022-08-07T04:41:53.175Z,61.31
2022-08-07T04:44:20.362Z,61.41
2022-08-07T04:47:04.731Z,61.40
2022-08-07T04:50:10.950Z,61.30
2022-08-07T04:52:54.263Z,60.88
2022-08-07T04:58:13.072Z,60.95
2022-08-07T04:59:15.833Z,61.12
2022-08-07T05:01:47.098Z,60.44
2022-08-07T05:04:50.075Z,60.55
2022-08-07T05:07:27.580Z,59.95
2022-08-07T05:10:31.077Z,60.58
2022-08-07T05:14:45.676Z,60.79
2022-08-07T05:15:53.768Z,60.89
2022-08-07T05:18:29.622Z,60.97
2022-08-07T05:21:02.113Z,60.84
2022-08-07T05:23:36.717Z,61.28
2022-08-07T05:26:11.839Z,61.02
2022-08-07T05:28:46.515Z,61.18
2022-08-07T05:31:17.378Z,61.39
2022-08-07T05:33:51.396Z,60.87
2022-08-07T05:36:35.593Z,61.16
2022-08-07T05:39:08.949Z,60.92
2022-08-07T05:42:00.567Z,60.55
2022-08-07T05:44:31.164Z,60.20
2022-08-07T05:47:01.335Z,60.19
2022-08-07T05:49:40.669Z,60.64
2022-08-07T05:52:11.711Z,60.17
2022-08-07T05:54:44.358Z,60.25
2022-08-07T05:57:21.651Z,60.17
2022-08-07T05:59:58.073Z,60.35
2022-08-07T06:02:29.683Z,60.24
2022-08-07T06:05:04.021Z,59.94
2022-08-07T06:08:14.682Z,60.36
2022-08-07T06:10:20.393Z,59.76
2022-08-07T06:12:48.096Z,60.01
2022-08-07T06:15:20.094Z,59.71
2022-08-07T06:17:53.783Z,59.70
2022-08-07T06:20:49.897Z,59.81
2022-08-07T06:23:46.570Z,59.31
2022-08-07T06:26:00.609Z,59.15
2022-08-07T06:28:28.542Z,59.75
2022-08-07T06:30:56.523Z,58.76
2022-08-07T06:33:26.238Z,59.10
2022-08-07T06:36:06.649Z,59.02
2022-08-07T06:38:51.343Z,58.54
2022-08-07T06:42:02.689Z,59.03
2022-08-07T06:44:21.306Z,58.49
2022-08-07T06:46:53.242Z,58.31
2022-08-07T06:49:20.548Z,58.11
2022-08-07T06:51:49.880Z,58.83
2022-08-07T06:55:33.879Z,57.98
2022-08-07T06:57:08.345Z,58.43
2022-08-07T07:00:12.237Z,58.14
2022-08-07T07:02:48.510Z,57.83
2022-08-07T07:06:03.199Z,58.09
2022-08-07T07:08:10.105Z,57.79
2022-08-07T07:10:39.619Z,58.35
2022-08-07T07:13:56.185Z,58.71
2022-08-07T07:16:19.580Z,57.37
2022-08-07T07:18:52.121Z,58.38
2022-08-07T07:21:27.085Z,57.49
2022-08-07T07:24:12.698Z,57.42
2022-08-07T07:26:52.169Z,57.40
2022-08-07T07:29:56.427Z,56.63
2022-08-07T07:32:13.964Z,56.34
2022-08-07T07:34:48.524Z,56.27
2022-08-07T07:37:44.447Z,56.00
2022-08-07T07:40:14.619Z,55.28
2022-08-07T07:42:51.117Z,55.82
2022-08-07T07:46:37.328Z,55.97
2022-08-07T07:48:24.079Z,56.51
2022-08-07T07:51:08.124Z,56.17
2022-08-07T07:53:52.021Z,56.16
2022-08-07T07:56:29.810Z,55.87
2022-08-07T07:59:01.516Z,54.61
2022-08-07T08:02:02.085Z,54.43
2022-08-07T08:04:20.174Z,54.81
2022-08-07T08:06:54.499Z,54.78
2022-08-07T08:09:29.472Z,54.04
2022-08-07T08:12:01.735Z,54.24
2022-08-07T08:14:34.514Z,54.47
2022-08-07T08:17:32.425Z,53.85
2022-08-07T08:20:17.570Z,53.72
2022-08-07T08:23:02.493Z,54.00
2022-08-07T08:25:52.091Z,54.10
2022-08-07T08:28:38.622Z,53.48
2022-08-07T08:31:14.773Z,52.47
2022-08-07T08:33:49.668Z,53.03
2022-08-07T08:36:30.075Z,52.54
2022-08-07T08:39:02.127Z,52.55
2022-08-07T08:41:57.616Z,51.77
2022-08-07T08:44:44.620Z,51.59
2022-08-07T08:47:26.471Z,51.55
2022-08-07T08:50:05.353Z,50.95
2022-08-07T08:52:53.716Z,50.42
2022-08-07T08:55:55.496Z,49.94
2022-08-07T08:58:36.317Z,50.20
2022-08-07T09:01:15.123Z,50.08
2022-08-07T09:03:52.948Z,50.08
2022-08-07T09:06:35.790Z,51.01
2022-08-07T09:09:30.116Z,49.55
2022-08-07T09:12:32.636Z,49.58
2022-08-07T09:16:22.757Z,48.99
2022-08-07T09:17:58.897Z,48.85
2022-08-07T09:20:39.615Z,49.43
2022-08-07T09:24:32.439Z,48.36
2022-08-07T09:26:28.004Z,48.39
2022-08-07T09:30:05.932Z,47.60
2022-08-07T09:31:58.755Z,48.58
2022-08-07T09:36:04.506Z,47.83
2022-08-07T09:38:10.358Z,48.00
2022-08-07T09:41:06.019Z,47.76
2022-08-07T09:44:20.001Z,47.62
2022-08-07T09:48:00.251Z,47.43
2022-08-07T09:50:21.520Z,47.22
2022-08-07T09:53:02.023Z,45.72
2022-08-07T09:56:02.684Z,46.62
2022-08-07T09:58:51.395Z,46.05
2022-08-07T10:01:52.324Z,45.63
2022-08-07T10:04:57.237Z,45.15
2022-08-07T10:07:59.244Z,44.88
2022-08-07T10:11:16.282Z,45.50
2022-08-07T10:14:00.261Z,45.24
2022-08-07T10:16:41.411Z,45.36
2022-08-07T10:19:22.283Z,44.21
2022-08-07T10:22:15.662Z,44.10
2022-08-07T10:25:00.808Z,43.68
2022-08-07T10:28:15.875Z,43.64
2022-08-07T10:31:10.992Z,43.25
2022-08-07T10:34:06.569Z,42.55
2022-08-07T10:36:45.470Z,43.89
2022-08-07T10:39:41.362Z,43.71
2022-08-07T10:42:55.533Z,43.23
2022-08-07T10:45:57.968Z,42.99
2022-08-07T10:48:34.866Z,42.45
2022-08-07T10:51:02.179Z,41.93
2022-08-07T10:54:01.472Z,42.54
2022-08-07T10:56:36.732Z,42.08
2022-08-07T10:59:30.439Z,41.71
2022-08-07T11:02:34.009Z,42.29
2022-08-07T11:05:35.961Z,42.78
2022-08-07T11:08:30.192Z,41.98
2022-08-07T11:11:09.193Z,43.09
2022-08-07T11:14:46.028Z,42.87
2022-08-07T11:17:01.080Z,41.68
2022-08-07T11:19:53.081Z,40.35
2022-08-07T11:22:46.181Z,40.61
2022-08-07T11:25:36.079Z,39.93
2022-08-07T11:28:25.489Z,40.13
2022-08-07T11:31:11.253Z,40.70
2022-08-07T11:33:59.231Z,40.03
2022-08-07T11:36:30.826Z,40.64
2022-08-07T11:39:14.581Z,39.37
2022-08-07T11:42:03.301Z,40.64
2022-08-07T11:44:52.119Z,39.44
2022-08-07T11:47:59.076Z,39.26
2022-08-07T11:51:00.484Z,39.28
2022-08-07T11:53:43.173Z,39.19
2022-08-07T11:56:30.944Z,39.46
2022-08-07T12:00:11.549Z,39.02
2022-08-07T12:02:52.454Z,39.83
2022-08-07T12:05:41.329Z,38.60
2022-08-07T12:08:34.475Z,39.26
2022-08-07T12:11:34.668Z,39.19
2022-08-07T12:14:24.634Z,39.25
2022-08-07T12:16:56.094Z,38.47
2022-08-07T12:20:03.232Z,38.52
2022-08-07T12:22:59.078Z,40.47
2022-08-07T12:26:22.316Z,38.54
2022-08-07T12:28:56.382Z,38.94
2022-08-07T12:31:52.861Z,38.70
2022-08-07T12:34:33.471Z,39.26
2022-08-07T12:37:02.223Z,39.17
2022-08-07T12:39:44.232Z,39.32
2022-08-07T12:42:27.554Z,39.65
2022-08-07T12:44:58.263Z,38.41
2022-08-07T12:47:39.615Z,38.97
2022-08-07T12:50:38.552Z,40.35
2022-08-07T12:53:27.581Z,39.66
2022-08-07T12:56:19.937Z,39.63
2022-08-07T12:58:56.897Z,40.47
2022-08-07T13:01:32.448Z,40.80
2022-08-07T13:04:13.586Z,40.69
2022-08-07T13:08:13.634Z,40.66
2022-08-07T13:10:39.924Z,40.67
2022-08-07T13:13:46.775Z,41.67
2022-08-07T13:16:54.686Z,40.26
2022-08-07T13:19:50.287Z,40.56
2022-08-07T13:22:38.389Z,40.02
2022-08-07T13:25:24.311Z,41.02
2022-08-07T13:28:10.989Z,40.10
2022-08-07T13:30:52.124Z,39.61
2022-08-07T13:34:30.879Z,39.98
2022-08-07T13:36:30.532Z,39.38
2022-08-07T13:40:32.643Z,39.72
2022-08-07T13:42:25.111Z,40.03
2022-08-07T13:45:21.050Z,39.92
2022-08-07T13:48:07.881Z,39.44
2022-08-07T13:51:00.526Z,40.29
2022-08-07T13:53:55.265Z,40.04
2022-08-07T13:56:20.651Z,40.37
2022-08-07T13:59:05.802Z,40.28
2022-08-07T14:02:03.829Z,40.38
2022-08-07T14:04:36.085Z,39.20
2022-08-07T14:07:09.505Z,39.81
2022-08-07T14:10:02.273Z,40.07
2022-08-07T14:12:54.993Z,40.31
2022-08-07T14:15:36.081Z,40.01
2022-08-07T14:18:23.468Z,40.25
2022-08-07T14:21:07.933Z,41.21
2022-08-07T14:24:02.204Z,40.53
2022-08-07T14:26:40.974Z,39.93
2022-08-07T14:30:04.910Z,39.61
2022-08-07T14:32:13.103Z,39.21
2022-08-07T14:34:46.355Z,38.52
2022-08-07T14:37:17.247Z,38.03
2022-08-07T14:40:16.724Z,38.32
2022-08-07T14:43:00.678Z,40.22
2022-08-07T14:45:46.404Z,40.00
2022-08-07T14:48:20.084Z,39.43
2022-08-07T14:54:05.817Z,39.12
2022-08-07T14:56:32.746Z,39.46
2022-08-07T14:59:13.985Z,39.62
2022-08-07T15:01:58.299Z,40.59
2022-08-07T15:04:26.264Z,39.88
2022-08-07T15:06:57.230Z,39.38
2022-08-07T15:09:59.482Z,38.83
2022-08-07T15:12:25.940Z,39.79
2022-08-07T15:15:21.339Z,40.26
2022-08-07T15:17:58.919Z,40.01
2022-08-07T15:20:54.716Z,40.18
2022-08-07T15:25:14.123Z,40.41
2022-08-07T15:32:01.876Z,41.45
2022-08-07T15:34:57.120Z,40.47
2022-08-07T15:38:17.583Z,40.30
2022-08-07T15:49:15.230Z,41.71
2022-08-07T15:54:34.175Z,41.67
2022-08-07T15:57:04.753Z,41.96
2022-08-07T15:59:40.013Z,41.93
2022-08-07T16:02:22.834Z,41.68
2022-08-07T16:04:57.846Z,41.82
2022-08-07T16:08:29.047Z,41.80
2022-08-07T16:10:23.062Z,41.83
2022-08-07T16:13:57.446Z,41.51
2022-08-07T16:16:48.562Z,41.25
2022-08-07T16:19:42.508Z,41.71
2022-08-07T16:22:55.286Z,42.32
2022-08-07T16:25:52.765Z,43.15
2022-08-07T16:30:07.090Z,42.87
2022-08-07T16:31:58.012Z,42.85
2022-08-07T16:34:48.808Z,43.14
2022-08-07T16:38:03.425Z,42.98
2022-08-07T16:54:33.020Z,43.28
2022-08-07T16:57:28.861Z,43.28
2022-08-07T17:00:16.123Z,44.24
2022-08-07T17:03:57.989Z,44.08
2022-08-07T17:07:02.880Z,44.39
2022-08-07T17:10:07.504Z,44.37
2022-08-07T17:12:56.704Z,44.67
2022-08-07T17:16:02.412Z,44.84
2022-08-07T17:18:45.885Z,46.22
2022-08-07T17:21:28.961Z,48.08
2022-08-07T17:24:31.864Z,49.08
2022-08-07T17:26:58.747Z,49.86
2022-08-07T17:30:16.122Z,50.38
2022-08-07T17:32:52.268Z,50.83
2022-08-07T17:35:55.191Z,50.92
2022-08-07T17:38:33.656Z,51.32
2022-08-07T17:42:02.821Z,51.30
2022-08-07T17:44:34.164Z,51.75
2022-08-07T17:47:04.153Z,51.95
2022-08-07T17:49:45.554Z,52.43
2022-08-07T17:52:34.091Z,53.11
2022-08-07T17:55:14.116Z,53.27
2022-08-07T17:57:58.998Z,53.72
2022-08-07T18:00:34.509Z,53.91
2022-08-07T18:04:03.628Z,54.35
2022-08-07T18:06:38.429Z,54.68
2022-08-07T18:09:08.631Z,54.80
2022-08-07T18:12:08.143Z,55.01
2022-08-07T18:14:55.632Z,55.07
2022-08-07T18:18:39.795Z,54.94
2022-08-07T18:21:08.706Z,55.38
2022-08-07T18:23:43.782Z,55.34
2022-08-07T18:26:20.182Z,55.25
2022-08-07T18:29:06.005Z,55.54
2022-08-07T18:32:16.052Z,55.64
2022-08-07T18:35:02.879Z,56.02
2022-08-07T18:38:59.168Z,56.07
2022-08-07T18:40:42.490Z,56.14
2022-08-07T18:43:18.432Z,56.21
2022-08-07T18:46:22.373Z,56.52
2022-08-07T18:50:31.819Z,56.50
2022-08-07T18:52:54.977Z,56.76
2022-08-07T18:55:57.354Z,56.85
2022-08-07T18:58:55.729Z,57.30
2022-08-07T19:02:17.389Z,58.87
2022-08-07T19:05:10.100Z,59.92
2022-08-07T19:07:51.697Z,60.60
2022-08-07T19:10:31.637Z,61.45
2022-08-07T19:13:21.689Z,62.00
2022-08-07T19:17:00.303Z,62.25
2022-08-07T19:19:17.581Z,62.83
2022-08-07T19:22:04.183Z,63.29
2022-08-07T19:24:46.283Z,63.58
2022-08-07T19:28:56.984Z,63.90
2022-08-07T19:31:05.542Z,63.82
2022-08-07T19:33:10.299Z,64.18
2022-08-07T19:35:42.564Z,64.48
2022-08-07T19:38:16.838Z,64.39
2022-08-07T19:40:50.004Z,64.72
2022-08-07T19:43:43.776Z,64.80
2022-08-07T19:46:26.729Z,64.67
2022-08-07T19:49:08.510Z,64.68
2022-08-07T19:51:51.044Z,64.38
2022-08-07T19:54:44.172Z,64.49
2022-08-07T19:58:00.784Z,64.66
2022-08-07T20:00:09.013Z,64.63
2022-08-07T20:02:52.196Z,68.47
2022-08-07T20:05:28.055Z,70.16
2022-08-07T20:08:02.530Z,70.55
2022-08-07T20:10:54.158Z,70.02
2022-08-07T20:13:45.991Z,70.93
2022-08-07T20:16:45.472Z,71.39
2022-08-07T20:19:13.613Z,73.19
2022-08-07T20:21:47.723Z,73.82
2022-08-07T20:24:20.910Z,75.29
2022-08-07T20:26:52.411Z,78.22
2022-08-07T20:29:47.791Z,78.32
2022-08-07T20:32:25.545Z,78.47
2022-08-07T20:34:57.696Z,78.25
2022-08-07T20:37:55.409Z,79.38
2022-08-07T20:40:31.226Z,80.32
2022-08-07T20:43:14.437Z,80.19
2022-08-07T20:46:28.787Z,80.17
2022-08-07T20:48:42.233Z,80.78
2022-08-07T20:51:29.673Z,80.39
2022-08-07T20:54:08.609Z,79.99
2022-08-07T20:56:46.293Z,79.37
2022-08-07T21:00:04.539Z,79.03
2022-08-07T21:02:39.445Z,78.57
2022-08-07T21:05:16.265Z,78.72
2022-08-07T21:07:49.660Z,79.04
2022-08-07T21:10:31.397Z,78.37
2022-08-07T21:13:01.126Z,77.68
2022-08-07T21:15:58.610Z,77.30
2022-08-07T21:18:29.486Z,76.36
2022-08-07T21:21:01.559Z,76.65
2022-08-07T21:23:50.967Z,76.12
2022-08-07T21:26:54.059Z,75.68
2022-08-07T21:29:33.627Z,75.55
2022-08-07T21:32:46.645Z,75.07
2022-08-07T21:35:08.051Z,75.03
2022-08-07T21:38:12.572Z,74.95
2022-08-07T21:40:54.234Z,74.55
2022-08-07T21:43:55.482Z,73.59
2022-08-07T21:46:40.556Z,74.24
2022-08-07T21:50:01.291Z,73.70
2022-08-07T21:53:08.468Z,73.12
2022-08-07T21:55:53.821Z,72.61
2022-08-07T21:58:37.111Z,72.13
2022-08-07T22:01:22.857Z,73.26
2022-08-07T22:04:20.394Z,72.45
2022-08-07T22:07:16.784Z,72.71
2022-08-07T22:09:53.782Z,72.56
2022-08-07T22:12:49.685Z,71.86
2022-08-07T22:16:43.660Z,71.79
2022-08-07T22:18:52.498Z,71.36
2022-08-07T22:22:02.107Z,71.06
2022-08-07T22:24:34.542Z,70.45
2022-08-07T22:27:17.447Z,67.94
2022-08-07T22:30:12.247Z,68.62
2022-08-07T22:33:09.658Z,69.16
2022-08-07T22:35:56.476Z,68.27
2022-08-07T22:38:42.222Z,67.90
2022-08-07T22:41:29.317Z,67.39
2022-08-07T22:44:18.555Z,67.82
2022-08-07T22:47:06.362Z,67.20
2022-08-07T22:49:39.704Z,65.77
2022-08-07T22:52:37.321Z,65.47
2022-08-07T22:55:30.851Z,65.02
2022-08-07T22:58:09.483Z,66.26
2022-08-07T23:00:57.814Z,65.95
2022-08-07T23:03:58.496Z,66.06
2022-08-07T23:07:28.459Z,66.43
2022-08-07T23:10:34.067Z,66.40
2022-08-07T23:12:59.810Z,66.58
2022-08-07T23:16:06.064Z,66.71
2022-08-07T23:18:42.290Z,66.85
2022-08-07T23:21:30.417Z,67.38
2022-08-07T23:24:32.916Z,67.18
2022-08-07T23:27:35.094Z,67.08
2022-08-07T23:30:38.837Z,67.63
2022-08-07T23:34:34.419Z,67.21
2022-08-07T23:36:43.815Z,67.58
2022-08-07T23:39:55.841Z,67.67
2022-08-07T23:42:47.320Z,67.77
2022-08-07T23:45:33.225Z,67.80
2022-08-07T23:48:40.888Z,68.03
2022-08-07T23:52:58.713Z,67.59
2022-08-07T23:54:19.882Z,67.26
2022-08-07T23:57:09.061Z,67.60
